Time;durP1;ratioP1;P1;durP2;ratioP2;P2;SDS_P1;SDS_P2;PMS_P1;PMS_P2;Temp;Humidity;BMP_temperature;BMP_pressure;BME280_temperature;BME280_humidity;BME280_pressure;Samples;Min_cycle;Max_cycle;Signal;HPM_P1;HPM_P2
2021/03/23 00:01:07;;;;;;;3.13;1.52;;;14.60;53.30;;;;;;6197572;23;20017;-78
2021/03/23 00:03:48;;;;;;;4.25;1.63;;;14.60;53.50;;;;;;6197714;23;20072;-80
2021/03/23 00:06:20;;;;;;;4.50;1.55;;;14.50;53.50;;;;;;6197888;23;20084;-79
2021/03/23 00:08:48;;;;;;;5.22;2.10;;;14.50;54.10;;;;;;6197667;23;20017;-79
2021/03/23 00:11:22;;;;;;;4.75;1.58;;;14.50;53.40;;;;;;6193756;23;20044;-79
2021/03/23 00:13:49;;;;;;;3.42;1.58;;;14.50;53.30;;;;;;6197677;23;20049;-80
2021/03/23 00:16:18;;;;;;;4.50;1.98;;;14.50;53.30;;;;;;6197321;23;20028;-79
2021/03/23 00:18:45;;;;;;;3.38;1.67;;;14.40;53.20;;;;;;6197630;23;20441;-79
2021/03/23 00:21:12;;;;;;;4.45;2.05;;;14.40;53.60;;;;;;6187940;23;20020;-79
2021/03/23 00:23:39;;;;;;;4.72;1.85;;;14.40;53.50;;;;;;6197574;23;20091;-80
2021/03/23 00:26:06;;;;;;;5.45;1.90;;;14.40;53.40;;;;;;6197545;23;20021;-79
2021/03/23 00:28:32;;;;;;;4.50;1.90;;;14.40;53.50;;;;;;6187595;23;20012;-78
2021/03/23 00:30:58;;;;;;;4.20;1.60;;;14.40;53.60;;;;;;6197456;23;20019;-78
2021/03/23 00:33:24;;;;;;;6.07;2.55;;;14.30;53.60;;;;;;6188005;23;20088;-79
2021/03/23 00:35:56;;;;;;;6.80;2.25;;;14.30;53.60;;;;;;6197469;23;20461;-80
2021/03/23 00:38:28;;;;;;;8.32;2.45;;;14.30;53.60;;;;;;6197752;23;20013;-78
2021/03/23 00:40:54;;;;;;;5.78;2.80;;;14.30;53.60;;;;;;6171812;23;20092;-81
2021/03/23 00:43:20;;;;;;;5.35;2.13;;;14.30;53.50;;;;;;6187247;23;20021;-78
2021/03/23 00:45:46;;;;;;;5.70;2.40;;;14.30;53.50;;;;;;6197295;23;20013;-80
2021/03/23 00:48:15;;;;;;;4.05;1.92;;;14.30;53.70;;;;;;6197094;23;20017;-78
2021/03/23 00:50:41;;;;;;;3.50;1.92;;;14.30;53.60;;;;;;6197438;23;20230;-79
2021/03/23 00:53:09;;;;;;;5.57;2.60;;;14.30;54.50;;;;;;6197441;23;20485;-79
2021/03/23 00:55:35;;;;;;;6.00;2.63;;;14.20;53.60;;;;;;6198134;23;20080;-80
2021/03/23 00:58:00;;;;;;;4.72;2.40;;;14.20;53.60;;;;;;6197526;23;20087;-81
2021/03/23 01:00:27;;;;;;;4.30;2.13;;;14.20;53.90;;;;;;6197462;23;20406;-81
2021/03/23 01:02:53;;;;;;;4.75;2.88;;;14.20;53.80;;;;;;6198852;23;20151;-79
2021/03/23 01:05:22;;;;;;;4.47;2.40;;;14.10;53.70;;;;;;6199008;23;20056;-80
2021/03/23 01:07:48;;;;;;;6.25;2.70;;;14.20;53.90;;;;;;6200119;23;20016;-80
2021/03/23 01:10:16;;;;;;;8.88;3.17;;;14.10;53.80;;;;;;6199164;23;20072;-80
2021/03/23 01:12:42;;;;;;;6.22;2.95;;;14.10;53.80;;;;;;6190044;23;20020;-79
2021/03/23 01:15:13;;;;;;;5.18;3.05;;;14.10;53.80;;;;;;6198799;23;20091;-80
2021/03/23 01:17:38;;;;;;;6.40;2.72;;;14.10;54.00;;;;;;6199689;23;20070;-81
2021/03/23 01:20:07;;;;;;;6.40;3.28;;;14.10;54.10;;;;;;6198739;23;20017;-80
2021/03/23 01:22:33;;;;;;;8.35;3.38;;;14.10;54.10;;;;;;6199244;23;20087;-80
2021/03/23 01:24:59;;;;;;;7.30;3.67;;;14.10;54.30;;;;;;6159376;23;20021;-79
2021/03/23 01:27:25;;;;;;;5.15;3.15;;;14.10;54.10;;;;;;6169190;23;20285;-78
2021/03/23 01:29:51;;;;;;;6.97;3.20;;;14.00;54.00;;;;;;6169333;23;20311;-78
2021/03/23 01:32:17;;;;;;;5.50;3.00;;;14.00;53.90;;;;;;6169350;23;20021;-81
2021/03/23 01:34:48;;;;;;;10.65;3.53;;;14.00;54.20;;;;;;6168361;23;20088;-81
2021/03/23 01:37:14;;;;;;;5.57;3.05;;;14.00;54.00;;;;;;6169166;23;20024;-79
2021/03/23 01:39:40;;;;;;;6.78;3.38;;;14.00;53.90;;;;;;6158872;23;20037;-81
2021/03/23 01:42:07;;;;;;;9.27;3.63;;;14.00;54.00;;;;;;6169298;23;20033;-79
2021/03/23 01:44:33;;;;;;;7.50;3.38;;;13.90;54.00;;;;;;6168714;23;20387;-79
2021/03/23 01:47:00;;;;;;;7.35;3.45;;;13.90;54.00;;;;;;6136442;23;20013;-79
2021/03/23 01:49:35;;;;;;;6.50;3.63;;;13.90;54.10;;;;;;6143424;23;20025;-79
2021/03/23 01:52:06;;;;;;;8.20;4.10;;;13.90;54.10;;;;;;6168639;23;20026;-81
2021/03/23 01:54:38;;;;;;;8.20;3.85;;;13.90;54.10;;;;;;6143316;23;20018;-80
2021/03/23 01:57:09;;;;;;;6.65;3.85;;;13.90;54.30;;;;;;6143098;23;20013;-80
2021/03/23 01:59:41;;;;;;;7.97;3.72;;;13.90;54.60;;;;;;6169705;23;20067;-80
2021/03/23 02:02:06;;;;;;;12.05;4.38;;;13.80;54.40;;;;;;6142821;23;20427;-78
2021/03/23 02:04:32;;;;;;;5.93;3.90;;;13.80;54.30;;;;;;6168720;23;20083;-79
2021/03/23 02:06:58;;;;;;;8.73;4.50;;;13.80;54.50;;;;;;6143232;23;20017;-79
2021/03/23 02:09:28;;;;;;;10.85;4.45;;;13.80;54.70;;;;;;6169062;23;20028;-80
2021/03/23 02:12:05;;;;;;;7.85;4.22;;;13.80;54.90;;;;;;6162665;23;20032;-80
2021/03/23 02:14:34;;;;;;;8.02;4.43;;;13.70;54.80;;;;;;6168168;23;20435;-79
2021/03/23 02:17:34;;;;;;;7.72;4.72;;;13.70;55.10;;;;;;6169613;23;20072;-80
2021/03/23 02:20:13;;;;;;;9.82;5.53;;;13.70;54.90;;;;;;6111166;23;20097;-78
2021/03/23 02:22:50;;;;;;;10.32;6.28;;;13.70;54.90;;;;;;6142835;23;20041;-80
2021/03/23 02:25:20;;;;;;;11.57;6.18;;;13.70;55.10;;;;;;6168380;23;20022;-80
2021/03/23 02:27:47;;;;;;;8.85;6.28;;;13.70;55.10;;;;;;6168301;23;20013;-80
2021/03/23 02:30:30;;;;;;;12.85;7.03;;;13.70;55.10;;;;;;6169043;23;20013;-79
2021/03/23 02:32:56;;;;;;;13.52;7.78;;;13.70;54.90;;;;;;6169160;23;20028;-80
2021/03/23 02:35:22;;;;;;;12.05;6.50;;;13.70;55.10;;;;;;6168585;23;20013;-80
2021/03/23 02:37:48;;;;;;;11.07;7.10;;;13.70;55.10;;;;;;6167807;23;20017;-79
2021/03/23 02:40:14;;;;;;;10.00;6.97;;;13.70;55.00;;;;;;6168849;23;20014;-79
2021/03/23 02:42:40;;;;;;;13.70;7.28;;;13.70;55.00;;;;;;6159473;23;20070;-80
2021/03/23 02:45:15;;;;;;;13.85;7.20;;;13.70;55.10;;;;;;6168712;23;20017;-80
2021/03/23 02:47:42;;;;;;;9.45;6.28;;;13.70;54.80;;;;;;6168006;23;20013;-80
2021/03/23 02:50:08;;;;;;;13.18;6.93;;;13.60;55.00;;;;;;6168331;23;20071;-80
2021/03/23 02:52:34;;;;;;;14.23;7.72;;;13.60;55.20;;;;;;6158529;23;20025;-78
2021/03/23 02:55:01;;;;;;;12.73;7.85;;;13.60;54.90;;;;;;6168850;23;20024;-80
2021/03/23 02:57:26;;;;;;;12.45;6.97;;;13.60;54.90;;;;;;6168590;23;20311;-80
2021/03/23 02:59:52;;;;;;;16.88;7.20;;;13.60;55.10;;;;;;6168218;23;20018;-79
2021/03/23 03:02:18;;;;;;;10.90;6.93;;;13.60;55.10;;;;;;6168482;23;20018;-80
2021/03/23 03:04:44;;;;;;;13.57;7.28;;;13.50;55.10;;;;;;6168515;23;20438;-79
2021/03/23 03:07:10;;;;;;;12.32;7.32;;;13.50;55.10;;;;;;6168193;23;20025;-79
2021/03/23 03:09:36;;;;;;;15.02;6.95;;;13.50;55.20;;;;;;6168263;23;20021;-81
2021/03/23 03:12:01;;;;;;;11.52;7.22;;;13.50;55.40;;;;;;6161335;23;20017;-80
2021/03/23 03:14:27;;;;;;;13.13;7.60;;;13.40;55.50;;;;;;6168243;23;20017;-79
2021/03/23 03:16:53;;;;;;;12.60;7.03;;;13.40;55.70;;;;;;6168431;23;20013;-80
2021/03/23 03:19:19;;;;;;;13.35;8.20;;;13.40;55.80;;;;;;6167912;23;20070;-79
2021/03/23 03:21:46;;;;;;;17.45;8.68;;;13.40;55.90;;;;;;6167910;23;20021;-80
2021/03/23 03:24:12;;;;;;;14.82;8.32;;;13.40;56.00;;;;;;6166461;23;20031;-80
2021/03/23 03:26:38;;;;;;;13.05;8.02;;;13.40;56.00;;;;;;6132393;23;20498;-79
2021/03/23 03:29:03;;;;;;;13.63;7.72;;;13.40;56.10;;;;;;6141994;23;20032;-81
2021/03/23 03:31:31;;;;;;;13.85;8.20;;;13.40;56.20;;;;;;6158002;23;20359;-78
2021/03/23 03:33:59;;;;;;;13.13;7.72;;;13.40;56.50;;;;;;6167734;23;20017;-79
2021/03/23 03:36:26;;;;;;;18.33;9.27;;;13.40;56.60;;;;;;6167831;23;20071;-79
2021/03/23 03:38:53;;;;;;;13.05;8.50;;;13.40;56.40;;;;;;6167884;23;20462;-78
2021/03/23 03:41:19;;;;;;;13.52;8.35;;;13.40;56.50;;;;;;6157672;23;20296;-80
2021/03/23 03:43:45;;;;;;;14.52;8.40;;;13.40;56.40;;;;;;6167833;23;20281;-79
2021/03/23 03:46:12;;;;;;;16.27;9.55;;;13.40;56.30;;;;;;6158582;23;20024;-79
2021/03/23 03:48:38;;;;;;;17.65;10.80;;;13.40;56.30;;;;;;6168143;23;20472;-80
2021/03/23 03:51:04;;;;;;;14.38;9.15;;;13.40;56.30;;;;;;6167653;23;20072;-80
2021/03/23 03:53:30;;;;;;;20.23;10.23;;;13.40;56.10;;;;;;6168119;23;20032;-78
2021/03/23 03:55:57;;;;;;;16.92;9.63;;;13.40;56.30;;;;;;6167845;23;20017;-80
2021/03/23 03:58:22;;;;;;;14.35;9.55;;;13.40;56.50;;;;;;6167674;23;20024;-78
2021/03/23 04:00:49;;;;;;;16.75;10.27;;;13.40;56.60;;;;;;6168014;23;20018;-79
2021/03/23 04:03:21;;;;;;;14.85;9.45;;;13.30;56.60;;;;;;6158805;23;20101;-81
2021/03/23 04:05:48;;;;;;;20.42;10.10;;;13.30;56.50;;;;;;6166749;23;20048;-79
2021/03/23 04:08:18;;;;;;;15.65;10.05;;;13.30;56.60;;;;;;6167807;23;20017;-80
2021/03/23 04:10:44;;;;;;;17.50;10.27;;;13.30;56.70;;;;;;6166597;23;20072;-80
2021/03/23 04:13:10;;;;;;;18.70;10.73;;;13.30;56.90;;;;;;6167720;23;20025;-80
2021/03/23 04:15:39;;;;;;;19.17;11.20;;;13.30;56.90;;;;;;6167523;23;20014;-81
2021/03/23 04:18:06;;;;;;;19.77;11.57;;;13.30;57.00;;;;;;6167325;23;20025;-80
2021/03/23 04:20:33;;;;;;;18.73;11.70;;;13.30;56.90;;;;;;6167493;23;20281;-78
2021/03/23 04:22:59;;;;;;;21.58;12.00;;;13.30;56.70;;;;;;6159172;23;20159;-79
2021/03/23 04:25:30;;;;;;;22.42;13.02;;;13.30;56.90;;;;;;6167813;23;20085;-79
2021/03/23 04:27:57;;;;;;;19.73;12.48;;;13.30;56.90;;;;;;6167746;23;20037;-80
2021/03/23 04:30:24;;;;;;;22.48;13.57;;;13.30;57.00;;;;;;6167321;23;20489;-79
2021/03/23 04:32:54;;;;;;;17.38;12.15;;;13.30;57.10;;;;;;6164533;23;20037;-80
2021/03/23 04:35:40;;;;;;;18.13;12.70;;;13.30;57.00;;;;;;6159390;23;20014;-79
2021/03/23 04:38:06;;;;;;;21.75;13.55;;;13.30;57.10;;;;;;6169852;23;20446;-81
2021/03/23 04:40:33;;;;;;;20.75;14.50;;;13.30;57.20;;;;;;6169353;23;20473;-78
2021/03/23 04:42:59;;;;;;;20.58;13.25;;;13.30;57.20;;;;;;6159679;23;20024;-78
2021/03/23 04:45:25;;;;;;;22.45;14.05;;;13.30;57.40;;;;;;6169860;23;20311;-79
2021/03/23 04:47:51;;;;;;;21.73;15.13;;;13.30;57.50;;;;;;6169626;23;20029;-79
2021/03/23 04:50:18;;;;;;;21.10;15.82;;;13.30;57.70;;;;;;6169669;23;20423;-78
2021/03/23 04:52:44;;;;;;;21.85;15.15;;;13.20;57.80;;;;;;6168883;23;20459;-79
2021/03/23 04:55:11;;;;;;;21.70;14.80;;;13.30;57.80;;;;;;6170749;23;20074;-79
2021/03/23 04:57:38;;;;;;;20.58;15.55;;;13.20;57.90;;;;;;6169318;23;20431;-78
2021/03/23 05:00:05;;;;;;;22.48;16.45;;;13.20;58.00;;;;;;6168889;23;20021;-79
2021/03/23 05:02:31;;;;;;;22.73;16.48;;;13.20;57.90;;;;;;6170144;23;20024;-79
2021/03/23 05:04:56;;;;;;;22.60;16.60;;;13.30;58.50;;;;;;6159167;23;20013;-79
2021/03/23 05:07:23;;;;;;;23.23;16.30;;;13.20;57.80;;;;;;6169583;23;20086;-80
2021/03/23 05:09:49;;;;;;;25.60;17.10;;;13.20;57.80;;;;;;6162413;23;20045;-78
2021/03/23 05:12:15;;;;;;;26.48;17.38;;;13.20;57.90;;;;;;6161937;23;20017;-80
2021/03/23 05:14:41;;;;;;;20.88;15.80;;;13.20;57.90;;;;;;6159549;23;20017;-79
2021/03/23 05:17:08;;;;;;;24.23;17.00;;;13.20;58.00;;;;;;6169875;23;20117;-80
2021/03/23 05:19:35;;;;;;;22.75;15.68;;;13.20;58.00;;;;;;6167475;23;20018;-78
2021/03/23 05:22:01;;;;;;;28.45;15.77;;;13.20;57.80;;;;;;6169571;23;20084;-76
2021/03/23 05:24:27;;;;;;;23.50;15.63;;;13.20;57.70;;;;;;6169467;23;20013;-76
2021/03/23 05:26:52;;;;;;;23.77;14.45;;;13.20;57.70;;;;;;6169028;23;20025;-72
2021/03/23 05:29:18;;;;;;;22.88;14.98;;;13.20;57.80;;;;;;6168741;23;20426;-74
2021/03/23 05:31:46;;;;;;;22.13;13.25;;;13.30;58.50;;;;;;6169315;23;20014;-75
2021/03/23 05:34:13;;;;;;;18.88;12.38;;;13.30;58.40;;;;;;6168996;23;20388;-71
2021/03/23 05:36:41;;;;;;;19.10;12.18;;;13.40;58.00;;;;;;6169628;23;20093;-73
2021/03/23 05:39:07;;;;;;;19.08;10.48;;;13.50;57.50;;;;;;6168798;23;20025;-74
2021/03/23 05:41:52;;;;;;;12.85;10.23;;;13.80;57.10;;;;;;6168397;23;20018;-73
2021/03/23 05:44:53;;;;;;;14.88;9.73;;;13.90;57.00;;;;;;6168789;23;20025;-72
2021/03/23 05:47:25;;;;;;;15.15;9.73;;;14.20;56.80;;;;;;6099868;23;20056;-77
2021/03/23 05:50:24;;;;;;;19.67;8.30;;;14.40;56.90;;;;;;6168487;23;20022;-80
2021/03/23 05:53:04;;;;;;;17.15;8.48;;;14.70;57.40;;;;;;6168390;23;20477;-73
2021/03/23 05:55:43;;;;;;;19.73;9.23;;;14.90;57.40;;;;;;6168855;23;20018;-76
2021/03/23 05:58:14;;;;;;;19.27;8.27;;;15.10;57.50;;;;;;6168856;23;20020;-78
2021/03/23 06:00:48;;;;;;;17.75;8.15;;;15.20;58.00;;;;;;6168525;23;20321;-75
2021/03/23 06:03:34;;;;;;;19.52;8.88;;;15.40;58.10;;;;;;6169172;23;20013;-75
2021/03/23 06:06:03;;;;;;;16.00;7.43;;;15.60;58.30;;;;;;6168240;23;20018;-75
2021/03/23 06:08:34;;;;;;;14.52;7.13;;;15.70;57.90;;;;;;6168001;23;20021;-75
2021/03/23 06:11:06;;;;;;;23.95;16.83;;;15.80;57.80;;;;;;6166050;23;20017;-75
2021/03/23 06:13:53;;;;;;;17.60;9.65;;;15.90;56.60;;;;;;6169157;23;20013;-75
2021/03/23 06:16:45;;;;;;;17.35;9.50;;;15.90;56.80;;;;;;6159743;23;20109;-78
2021/03/23 06:19:30;;;;;;;17.55;8.85;;;15.90;57.00;;;;;;6168704;23;20026;-77
2021/03/23 06:21:59;;;;;;;14.32;8.07;;;16.00;57.00;;;;;;6168230;23;20013;-75
2021/03/23 06:24:29;;;;;;;12.82;7.82;;;16.10;57.10;;;;;;6168610;23;20088;-74
2021/03/23 06:27:23;;;;;;;19.15;7.60;;;16.20;57.10;;;;;;6169469;23;20056;-75
2021/03/23 06:29:58;;;;;;;18.02;7.07;;;16.30;57.10;;;;;;6168388;23;20021;-74
2021/03/23 06:32:34;;;;;;;14.25;7.55;;;16.40;56.90;;;;;;6168060;23;20052;-77
2021/03/23 06:35:00;;;;;;;13.25;7.93;;;16.40;56.70;;;;;;6168390;23;20330;-75
2021/03/23 06:37:26;;;;;;;13.23;6.47;;;16.60;56.60;;;;;;6168199;23;20308;-76
2021/03/23 06:39:53;;;;;;;21.58;7.15;;;16.60;56.50;;;;;;6168617;23;20029;-77
2021/03/23 06:42:39;;;;;;;16.77;6.15;;;16.70;56.50;;;;;;6159786;23;20013;-76
2021/03/23 06:45:25;;;;;;;13.85;6.35;;;16.80;56.50;;;;;;6168496;23;20359;-78
2021/03/23 06:47:52;;;;;;;12.45;5.90;;;16.90;56.30;;;;;;6167544;23;20450;-78
2021/03/23 06:50:27;;;;;;;14.63;6.22;;;17.00;56.10;;;;;;6167317;23;20014;-76
2021/03/23 06:53:16;;;;;;;12.63;5.97;;;17.10;55.90;;;;;;6167938;23;20017;-78
2021/03/23 06:55:45;;;;;;;16.80;5.63;;;17.20;56.00;;;;;;6158334;23;20104;-76
2021/03/23 06:58:23;;;;;;;12.57;5.68;;;17.20;55.90;;;;;;6168420;23;20021;-77
2021/03/23 07:01:08;;;;;;;14.05;5.88;;;17.30;55.80;;;;;;6167561;23;20096;-74
2021/03/23 07:03:34;;;;;;;14.75;6.32;;;17.30;55.50;;;;;;6167397;23;20068;-75
2021/03/23 07:06:00;;;;;;;21.30;6.20;;;17.30;55.60;;;;;;6158232;23;20018;-78
2021/03/23 07:08:26;;;;;;;13.13;5.93;;;17.40;55.50;;;;;;6167660;23;20009;-78
2021/03/23 07:10:52;;;;;;;12.68;6.38;;;17.40;55.40;;;;;;6163983;23;20022;-75
2021/03/23 07:13:39;;;;;;;9.90;5.50;;;17.40;55.50;;;;;;6167843;23;20033;-80
2021/03/23 07:16:11;;;;;;;12.50;5.47;;;17.40;55.60;;;;;;6168191;23;20021;-76
2021/03/23 07:18:46;;;;;;;11.35;5.60;;;17.50;55.70;;;;;;6141680;23;20020;-77
2021/03/23 07:21:34;;;;;;;9.70;5.40;;;17.50;55.50;;;;;;6166835;23;20430;-79
2021/03/23 07:24:06;;;;;;;12.02;5.80;;;17.60;55.50;;;;;;6156265;23;20021;-79
2021/03/23 07:26:35;;;;;;;14.40;5.60;;;17.70;55.60;;;;;;6168210;23;20017;-80
2021/03/23 07:29:10;;;;;;;13.98;5.60;;;17.70;55.30;;;;;;6167097;23;20423;-79
2021/03/23 07:31:41;;;;;;;17.48;5.85;;;17.70;55.20;;;;;;6157845;23;20433;-78
2021/03/23 07:34:16;;;;;;;12.45;5.50;;;17.80;55.30;;;;;;6167783;23;20017;-73
2021/03/23 07:37:09;;;;;;;18.63;5.78;;;17.80;55.20;;;;;;6167723;23;20013;-72
2021/03/23 07:39:42;;;;;;;22.00;7.00;;;17.90;55.40;;;;;;6147256;23;20048;-74
2021/03/23 07:42:44;;;;;;;21.92;7.30;;;17.80;55.00;;;;;;6167571;23;20336;-76
2021/03/23 07:45:27;;;;;;;13.50;6.53;;;17.70;55.30;;;;;;6152218;23;20320;-75
2021/03/23 07:48:12;;;;;;;34.22;8.20;;;17.60;55.60;;;;;;6166395;23;20010;-76
2021/03/23 07:50:44;;;;;;;14.90;7.57;;;17.60;55.60;;;;;;6166890;23;20028;-75
2021/03/23 07:53:37;;;;;;;19.27;7.85;;;17.50;55.50;;;;;;6166428;23;20064;-76
2021/03/23 07:56:28;;;;;;;20.77;8.73;;;17.50;56.10;;;;;;6158327;23;20017;-75
2021/03/23 07:59:09;;;;;;;17.90;7.35;;;17.40;55.40;;;;;;6167235;23;20017;-76
2021/03/23 08:02:01;;;;;;;16.45;7.60;;;17.30;55.50;;;;;;6166118;23;20024;-75
2021/03/23 08:04:35;;;;;;;15.63;7.53;;;17.30;55.50;;;;;;6167633;23;20068;-77
2021/03/23 08:07:29;;;;;;;13.70;7.32;;;17.20;55.50;;;;;;6167852;23;20100;-76
2021/03/23 08:10:15;;;;;;;14.75;6.93;;;17.20;55.60;;;;;;6167485;23;20018;-75
2021/03/23 08:12:57;;;;;;;15.77;7.32;;;17.10;55.60;;;;;;6157391;23;20048;-76
2021/03/23 08:15:54;;;;;;;15.32;7.32;;;17.00;55.60;;;;;;6167507;23;20033;-76
2021/03/23 08:18:50;;;;;;;13.80;7.00;;;17.00;55.70;;;;;;6150643;23;20095;-76
2021/03/23 08:21:44;;;;;;;15.55;7.18;;;16.90;55.70;;;;;;6166859;23;20084;-77
2021/03/23 08:24:15;;;;;;;11.25;6.93;;;16.80;55.70;;;;;;6167247;23;20382;-75
2021/03/23 08:27:15;;;;;;;11.32;6.63;;;16.80;55.80;;;;;;6166506;23;20084;-75
2021/03/23 08:29:54;;;;;;;17.73;7.47;;;16.70;55.90;;;;;;6146053;23;20041;-77
2021/03/23 08:32:21;;;;;;;10.85;6.78;;;16.60;55.90;;;;;;6166927;23;20013;-76
2021/03/23 08:35:07;;;;;;;11.40;7.13;;;16.60;56.00;;;;;;6167743;23;20101;-76
2021/03/23 08:37:45;;;;;;;12.68;7.72;;;16.60;56.00;;;;;;6167104;23;20013;-77
2021/03/23 08:40:20;;;;;;;13.40;7.32;;;16.50;56.00;;;;;;6166646;23;20318;-76
2021/03/23 08:42:47;;;;;;;11.63;7.20;;;16.50;56.10;;;;;;6167350;23;20013;-74
2021/03/23 08:45:22;;;;;;;11.07;7.35;;;16.50;56.10;;;;;;6162874;23;20073;-76
2021/03/23 08:48:17;;;;;;;10.35;7.13;;;16.50;56.10;;;;;;6166724;23;20014;-77
2021/03/23 08:50:45;;;;;;;11.13;7.63;;;16.40;56.10;;;;;;6167329;23;20021;-76
2021/03/23 08:53:30;;;;;;;10.95;7.90;;;16.40;56.30;;;;;;6166869;23;20025;-74
2021/03/23 08:55:56;;;;;;;9.63;7.57;;;16.40;56.20;;;;;;6167192;23;20360;-75
2021/03/23 08:58:44;;;;;;;11.02;7.38;;;16.30;56.30;;;;;;6167571;23;20037;-76
2021/03/23 09:01:25;;;;;;;12.18;7.20;;;16.30;56.30;;;;;;6164656;23;20017;-75
2021/03/23 09:04:12;;;;;;;11.98;7.72;;;16.30;56.20;;;;;;6167349;23;20189;-78
2021/03/23 09:06:53;;;;;;;11.18;7.65;;;16.30;56.30;;;;;;6155927;23;20039;-76
2021/03/23 09:09:31;;;;;;;12.70;8.27;;;16.20;56.40;;;;;;6167568;23;20017;-77
2021/03/23 09:12:18;;;;;;;12.18;6.97;;;16.20;56.40;;;;;;6160028;23;20013;-76
2021/03/23 09:15:20;;;;;;;10.07;7.25;;;16.20;56.40;;;;;;6167745;23;20014;-75
2021/03/23 09:18:06;;;;;;;10.50;7.65;;;16.20;56.30;;;;;;6167897;23;20017;-76
2021/03/23 09:20:32;;;;;;;9.13;6.38;;;16.10;56.10;;;;;;6166872;23;20044;-75
2021/03/23 09:23:23;;;;;;;10.38;7.22;;;16.10;56.10;;;;;;6168113;23;20013;-76
2021/03/23 09:25:56;;;;;;;8.00;6.72;;;16.10;56.00;;;;;;6169051;23;20024;-75
2021/03/23 09:28:39;;;;;;;9.32;7.68;;;16.10;56.00;;;;;;6169034;23;20092;-76
2021/03/23 09:31:24;;;;;;;10.70;8.10;;;16.10;56.10;;;;;;6169455;23;20029;-76
2021/03/23 09:33:55;;;;;;;10.25;8.10;;;16.00;56.20;;;;;;6168486;23;20018;-76
2021/03/23 09:36:44;;;;;;;10.13;8.02;;;16.00;56.30;;;;;;6169309;23;20423;-74
2021/03/23 09:39:17;;;;;;;11.27;7.90;;;16.00;56.40;;;;;;6160827;23;20028;-76
2021/03/23 09:42:12;;;;;;;10.98;8.38;;;16.00;57.20;;;;;;6168652;23;20028;-75
2021/03/23 09:44:45;;;;;;;10.02;7.63;;;16.00;56.70;;;;;;6169201;23;20319;-76
2021/03/23 09:47:39;;;;;;;9.95;8.02;;;16.00;56.90;;;;;;6168881;23;20300;-75
2021/03/23 09:50:26;;;;;;;9.38;7.47;;;16.00;56.90;;;;;;6169187;23;20151;-76
2021/03/23 09:53:00;;;;;;;9.73;7.63;;;16.00;57.00;;;;;;6168384;23;20431;-74
2021/03/23 09:55:26;;;;;;;10.90;8.13;;;15.90;57.00;;;;;;6167564;23;20025;-76
2021/03/23 09:57:55;;;;;;;11.68;8.50;;;15.90;57.00;;;;;;6167997;23;20088;-76
2021/03/23 10:00:28;;;;;;;10.18;7.72;;;15.90;57.00;;;;;;6169555;23;20032;-76
2021/03/23 10:02:55;;;;;;;11.20;8.57;;;15.90;57.00;;;;;;6168147;23;20044;-78
2021/03/23 10:05:25;;;;;;;10.10;8.43;;;15.90;57.10;;;;;;6168718;23;20340;-78
2021/03/23 10:07:53;;;;;;;9.60;8.32;;;15.90;57.10;;;;;;6168507;23;20017;-76
2021/03/23 10:10:27;;;;;;;10.93;7.80;;;15.80;57.00;;;;;;6168946;23;20443;-77
2021/03/23 10:12:55;;;;;;;11.15;8.23;;;15.80;56.90;;;;;;6167845;23;20029;-76
2021/03/23 10:15:39;;;;;;;9.63;7.88;;;15.80;56.90;;;;;;6168592;23;20355;-76
2021/03/23 10:18:20;;;;;;;9.38;7.90;;;15.80;56.90;;;;;;6169655;23;20017;-74
2021/03/23 10:21:00;;;;;;;11.02;8.57;;;15.80;57.00;;;;;;6168476;23;20281;-74
2021/03/23 10:23:28;;;;;;;9.93;8.85;;;15.70;57.10;;;;;;6168037;23;20032;-76
2021/03/23 10:25:56;;;;;;;9.15;8.10;;;15.70;57.20;;;;;;6168910;23;20020;-74
2021/03/23 10:28:50;;;;;;;9.68;8.05;;;15.70;57.30;;;;;;6168491;23;20020;-77
2021/03/23 10:31:32;;;;;;;11.55;9.15;;;15.70;57.90;;;;;;6169212;23;20032;-77
2021/03/23 10:34:06;;;;;;;10.25;8.50;;;15.70;57.60;;;;;;6168111;23;20013;-75
2021/03/23 10:36:55;;;;;;;10.55;8.57;;;15.70;57.50;;;;;;6168063;23;20323;-75
2021/03/23 10:39:29;;;;;;;9.50;8.50;;;15.70;57.70;;;;;;6168285;23;20017;-75
2021/03/23 10:41:55;;;;;;;12.40;8.43;;;15.70;57.90;;;;;;6168608;23;20017;-77
2021/03/23 10:44:28;;;;;;;11.70;8.93;;;15.60;57.70;;;;;;6168562;23;20361;-75
2021/03/23 10:46:55;;;;;;;9.48;8.35;;;15.60;57.50;;;;;;6166672;23;20018;-76
2021/03/23 10:49:25;;;;;;;9.75;7.68;;;15.60;57.70;;;;;;6168724;23;20025;-77
2021/03/23 10:52:00;;;;;;;9.30;8.38;;;15.60;57.70;;;;;;6168311;23;20017;-74
2021/03/23 10:54:28;;;;;;;9.95;8.52;;;15.60;57.40;;;;;;6167444;23;20420;-74
2021/03/23 10:57:18;;;;;;;9.77;8.75;;;15.60;57.60;;;;;;6168163;23;20017;-75
2021/03/23 10:59:44;;;;;;;12.05;8.25;;;15.60;57.70;;;;;;6158258;23;20354;-76
2021/03/23 11:02:13;;;;;;;9.77;8.10;;;15.60;57.70;;;;;;6167162;23;20028;-76
2021/03/23 11:05:02;;;;;;;10.98;8.95;;;15.60;57.80;;;;;;6168610;23;20037;-74
2021/03/23 11:07:29;;;;;;;10.82;8.63;;;15.60;58.50;;;;;;6168128;23;20037;-76
2021/03/23 11:09:59;;;;;;;9.30;8.13;;;15.50;58.70;;;;;;6168475;23;20041;-76
2021/03/23 11:12:27;;;;;;;9.93;8.07;;;15.50;57.90;;;;;;6158039;23;20021;-75
2021/03/23 11:14:54;;;;;;;10.45;8.13;;;15.50;57.60;;;;;;6168676;23;20013;-74
2021/03/23 11:17:23;;;;;;;8.93;7.72;;;15.50;58.10;;;;;;6168714;23;20017;-76
2021/03/23 11:19:54;;;;;;;9.38;8.15;;;15.50;57.50;;;;;;6168357;23;20075;-73
2021/03/23 11:22:40;;;;;;;10.35;8.57;;;15.50;57.40;;;;;;6167852;23;20031;-74
2021/03/23 11:25:16;;;;;;;9.35;8.32;;;15.50;57.60;;;;;;6167296;23;20014;-76
2021/03/23 11:27:41;;;;;;;9.30;7.78;;;15.50;57.70;;;;;;6167814;23;20041;-76
2021/03/23 11:30:09;;;;;;;10.15;7.90;;;15.50;57.70;;;;;;6167476;23;20018;-74
2021/03/23 11:32:34;;;;;;;10.02;7.57;;;15.50;57.50;;;;;;6168935;23;20020;-77
2021/03/23 11:35:00;;;;;;;8.95;7.90;;;15.50;57.40;;;;;;6167993;23;20022;-76
2021/03/23 11:37:26;;;;;;;9.32;7.65;;;15.50;57.40;;;;;;6168161;23;20017;-74
2021/03/23 11:39:52;;;;;;;9.40;7.72;;;15.50;57.50;;;;;;6166881;23;20494;-78
2021/03/23 11:42:35;;;;;;;17.13;11.55;;;15.50;57.50;;;;;;6166675;23;20033;-78
2021/03/23 11:45:07;;;;;;;19.08;13.70;;;15.50;57.30;;;;;;6157073;23;20116;-78
2021/03/23 11:47:45;;;;;;;22.23;15.48;;;15.40;57.40;;;;;;6131155;23;20021;-73
2021/03/23 11:50:20;;;;;;;32.92;23.77;;;15.40;56.30;;;;;;6167253;23;20037;-76
2021/03/23 11:52:47;;;;;;;26.60;21.40;;;15.30;56.40;;;;;;6166755;23;20427;-77
2021/03/23 11:55:18;;;;;;;30.60;22.15;;;15.30;56.30;;;;;;6156866;23;20017;-75
2021/03/23 11:57:44;;;;;;;24.58;19.17;;;15.20;55.90;;;;;;6166686;23;20289;-80
2021/03/23 12:00:13;;;;;;;23.98;20.42;;;15.20;55.60;;;;;;6167455;23;20017;-76
2021/03/23 12:02:40;;;;;;;26.60;21.10;;;15.10;55.40;;;;;;6167573;23;20023;-77
2021/03/23 12:05:08;;;;;;;28.35;21.10;;;15.10;55.50;;;;;;6167719;23;20021;-74
2021/03/23 12:07:36;;;;;;;25.02;19.20;;;15.10;55.60;;;;;;6167634;23;20013;-75
2021/03/23 12:10:24;;;;;;;23.98;19.58;;;15.10;55.70;;;;;;6166640;23;20017;-73
2021/03/23 12:13:13;;;;;;;24.50;18.75;;;15.10;56.40;;;;;;6157732;23;20443;-72
2021/03/23 12:15:51;;;;;;;27.02;16.67;;;15.10;56.70;;;;;;6166523;23;20017;-74
2021/03/23 12:18:19;;;;;;;27.17;14.75;;;15.20;56.80;;;;;;6167173;23;20427;-73
2021/03/23 12:20:55;;;;;;;24.48;14.13;;;15.40;56.90;;;;;;6167486;23;20446;-82
2021/03/23 12:23:21;;;;;;;27.52;17.85;;;15.50;56.90;;;;;;6130889;23;20092;-73
2021/03/23 12:25:47;;;;;;;26.58;20.02;;;15.60;56.70;;;;;;6166199;23;20316;-74
2021/03/23 12:28:13;;;;;;;25.80;19.45;;;15.60;56.50;;;;;;6166412;23;20024;-73
2021/03/23 12:30:39;;;;;;;25.00;17.45;;;15.70;56.70;;;;;;6167683;23;20439;-74
2021/03/23 12:33:04;;;;;;;21.42;15.52;;;15.70;56.80;;;;;;6166935;23;20051;-74
2021/03/23 12:35:30;;;;;;;22.83;14.40;;;15.70;56.30;;;;;;6167406;23;20017;-76
2021/03/23 12:38:00;;;;;;;19.73;12.65;;;15.90;56.20;;;;;;6167989;23;20068;-74
2021/03/23 12:41:00;;;;;;;19.42;12.75;;;16.00;56.20;;;;;;6166124;23;20044;-77
2021/03/23 12:43:27;;;;;;;15.93;10.85;;;16.20;56.20;;;;;;6095404;23;20323;-75
2021/03/23 12:45:56;;;;;;;16.98;10.90;;;16.30;56.00;;;;;;6167209;23;20093;-75
2021/03/23 12:48:23;;;;;;;19.10;11.25;;;16.50;56.00;;;;;;6167142;23;20014;-75
2021/03/23 12:50:53;;;;;;;26.10;10.88;;;16.50;55.80;;;;;;6159223;23;20018;-76
2021/03/23 12:53:20;;;;;;;26.40;10.55;;;16.60;55.90;;;;;;6167354;23;20016;-77
2021/03/23 12:55:53;;;;;;;18.67;9.38;;;16.60;55.90;;;;;;6167159;23;20018;-77
2021/03/23 12:58:24;;;;;;;18.98;9.35;;;16.70;55.90;;;;;;6170140;23;20021;-76
2021/03/23 13:00:51;;;;;;;17.77;9.18;;;16.70;55.80;;;;;;6168971;23;20017;-75
2021/03/23 13:03:19;;;;;;;18.65;9.05;;;16.80;55.90;;;;;;6169774;23;20044;-77
2021/03/23 13:05:47;;;;;;;22.70;9.85;;;16.80;55.80;;;;;;6169049;23;20013;-78